createdAt,value
2022-12-27T00:01:34.920Z,5.15
2022-12-27T00:04:03.310Z,5.22
2022-12-27T00:06:31.265Z,5.20
2022-12-27T00:09:00.981Z,5.10
2022-12-27T00:11:30.690Z,5.23
2022-12-27T00:13:59.280Z,5.19
2022-12-27T00:16:29.344Z,5.19
2022-12-27T00:18:58.579Z,5.09
2022-12-27T00:21:26.848Z,5.03
2022-12-27T00:23:57.545Z,5.10
2022-12-27T00:26:45.490Z,5.16
2022-12-27T00:29:13.671Z,5.05
2022-12-27T00:31:41.537Z,5.09
2022-12-27T00:34:10.443Z,4.98
2022-12-27T00:36:38.367Z,5.02
2022-12-27T00:39:06.605Z,5.04
2022-12-27T00:41:34.469Z,5.05
2022-12-27T00:44:03.860Z,5.03
2022-12-27T00:46:31.692Z,5.02
2022-12-27T00:48:59.502Z,4.94
2022-12-27T00:51:27.597Z,4.88
2022-12-27T00:53:55.908Z,4.85
2022-12-27T00:56:28.927Z,4.88
2022-12-27T00:58:59.292Z,4.82
2022-12-27T01:01:32.100Z,4.87
2022-12-27T01:04:00.844Z,4.88
2022-12-27T01:06:33.500Z,4.90
2022-12-27T01:09:05.213Z,4.84
2022-12-27T01:11:34.314Z,4.80
2022-12-27T01:14:05.127Z,4.86
2022-12-27T01:16:34.944Z,4.75
2022-12-27T01:19:04.386Z,4.78
2022-12-27T01:21:32.174Z,4.75
2022-12-27T01:24:00.065Z,4.78
2022-12-27T01:26:29.063Z,4.71
2022-12-27T01:28:57.000Z,4.79
2022-12-27T01:31:28.229Z,4.67
2022-12-27T01:34:00.241Z,4.60
2022-12-27T01:36:30.545Z,4.61
2022-12-27T01:38:59.884Z,4.64
2022-12-27T01:41:49.514Z,4.57
2022-12-27T01:44:50.186Z,4.66
2022-12-27T01:47:34.739Z,4.59
2022-12-27T01:50:19.802Z,4.61
2022-12-27T01:52:58.694Z,4.61
2022-12-27T01:55:35.574Z,4.60
2022-12-27T01:58:11.271Z,4.62
2022-12-27T02:00:43.935Z,4.60
2022-12-27T02:03:18.097Z,4.62
2022-12-27T02:05:47.782Z,4.61
2022-12-27T02:08:32.288Z,4.58
2022-12-27T02:11:02.749Z,4.53
2022-12-27T02:13:35.940Z,4.59
2022-12-27T02:16:12.738Z,4.56
2022-12-27T02:18:41.181Z,4.53
2022-12-27T02:21:56.042Z,4.47
2022-12-27T02:24:56.884Z,4.45
2022-12-27T02:27:50.708Z,4.50
2022-12-27T02:30:20.455Z,4.59
2022-12-27T02:32:56.955Z,4.54
2022-12-27T02:35:31.952Z,4.43
2022-12-27T02:38:07.010Z,4.53
2022-12-27T02:40:55.765Z,4.50
2022-12-27T02:43:42.864Z,4.54
2022-12-27T02:46:36.802Z,4.49
2022-12-27T02:49:43.793Z,4.42
2022-12-27T02:52:51.876Z,4.46
2022-12-27T02:55:35.209Z,4.46
2022-12-27T02:58:25.701Z,4.50
2022-12-27T03:01:32.678Z,4.49
2022-12-27T03:04:24.717Z,4.55
2022-12-27T03:07:14.864Z,4.44
2022-12-27T03:10:13.147Z,4.51
2022-12-27T03:13:12.880Z,4.41
2022-12-27T03:15:58.017Z,4.40
2022-12-27T03:18:42.845Z,4.50
2022-12-27T03:21:41.095Z,4.51
2022-12-27T03:24:30.888Z,4.57
2022-12-27T03:27:02.277Z,4.58
2022-12-27T03:29:50.226Z,4.65
2022-12-27T03:32:37.580Z,4.69
2022-12-27T03:35:16.927Z,4.64
2022-12-27T03:38:03.555Z,4.63
2022-12-27T03:41:07.069Z,4.61
2022-12-27T03:43:38.336Z,4.65
2022-12-27T03:46:35.945Z,4.73
2022-12-27T03:49:20.888Z,4.81
2022-12-27T03:51:58.561Z,4.83
2022-12-27T03:54:34.210Z,4.74
2022-12-27T03:57:06.286Z,4.76
2022-12-27T03:59:34.719Z,4.83
2022-12-27T04:02:02.592Z,4.72
2022-12-27T04:04:30.946Z,4.78
2022-12-27T04:06:58.876Z,4.82
2022-12-27T04:09:46.874Z,4.77
2022-12-27T04:12:33.285Z,4.85
2022-12-27T04:15:22.746Z,4.81
2022-12-27T04:18:09.532Z,4.82
2022-12-27T04:20:57.228Z,4.89
2022-12-27T04:23:43.997Z,4.85
2022-12-27T04:26:32.043Z,4.83
2022-12-27T04:29:18.982Z,4.83
2022-12-27T04:32:05.449Z,4.96
2022-12-27T04:34:42.843Z,4.93
2022-12-27T04:37:14.967Z,4.96
2022-12-27T04:40:03.740Z,4.91
2022-12-27T04:42:51.436Z,4.79
2022-12-27T04:45:39.039Z,4.88
2022-12-27T04:48:31.439Z,4.83
2022-12-27T04:51:18.435Z,4.85
2022-12-27T04:54:05.085Z,4.81
2022-12-27T04:56:32.902Z,4.80
2022-12-27T04:59:20.849Z,4.88
2022-12-27T05:02:04.501Z,4.91
2022-12-27T05:04:36.793Z,4.88
2022-12-27T05:07:30.561Z,4.91
2022-12-27T05:10:20.073Z,5.00
2022-12-27T05:13:06.188Z,5.09
2022-12-27T05:15:35.300Z,5.07
2022-12-27T05:18:03.118Z,5.27
2022-12-27T05:20:30.972Z,5.32
2022-12-27T05:23:17.681Z,5.34
2022-12-27T05:25:47.100Z,5.31
2022-12-27T05:28:14.947Z,5.46
2022-12-27T05:30:44.900Z,5.44
2022-12-27T05:33:12.744Z,5.49
2022-12-27T05:35:41.571Z,5.54
2022-12-27T05:38:09.544Z,5.62
2022-12-27T05:40:37.261Z,5.76
2022-12-27T05:43:05.244Z,5.61
2022-12-27T05:45:33.491Z,5.62
2022-12-27T05:48:02.675Z,5.57
2022-12-27T05:50:30.436Z,5.54
2022-12-27T05:53:11.026Z,5.56
2022-12-27T05:55:38.915Z,5.70
2022-12-27T05:58:07.649Z,5.70
2022-12-27T06:00:35.596Z,5.80
2022-12-27T06:03:04.931Z,5.94
2022-12-27T06:05:32.821Z,5.77
2022-12-27T06:08:00.691Z,5.81
2022-12-27T06:10:28.495Z,5.79
2022-12-27T06:12:59.173Z,5.64
2022-12-27T06:15:27.370Z,5.62
2022-12-27T06:17:55.278Z,5.65
2022-12-27T06:20:24.613Z,5.69
2022-12-27T06:22:53.163Z,5.70
2022-12-27T06:25:20.899Z,5.66
2022-12-27T06:27:48.813Z,5.66
2022-12-27T06:30:16.611Z,5.67
2022-12-27T06:32:44.477Z,5.51
2022-12-27T06:35:12.273Z,5.40
2022-12-27T06:37:41.806Z,5.33
2022-12-27T06:40:13.528Z,5.41
2022-12-27T06:42:41.357Z,5.31
2022-12-27T06:45:10.533Z,5.32
2022-12-27T06:47:38.650Z,5.21
2022-12-27T06:50:12.627Z,5.16
2022-12-27T06:52:41.768Z,5.30
2022-12-27T06:55:10.175Z,5.23
2022-12-27T06:57:38.399Z,5.14
2022-12-27T07:00:11.620Z,5.30
2022-12-27T07:02:39.599Z,5.24
2022-12-27T07:05:10.809Z,5.20
2022-12-27T07:07:38.772Z,5.28
2022-12-27T07:10:09.719Z,5.26
2022-12-27T07:12:37.930Z,5.24
2022-12-27T07:15:10.706Z,5.25
2022-12-27T07:17:39.230Z,5.21
2022-12-27T07:20:09.235Z,5.16
2022-12-27T07:22:37.159Z,5.20
2022-12-27T07:25:09.890Z,5.25
2022-12-27T07:27:37.990Z,5.14
2022-12-27T07:30:13.728Z,5.05
2022-12-27T07:32:41.597Z,5.03
2022-12-27T07:35:12.850Z,5.17
2022-12-27T07:37:40.581Z,5.13
2022-12-27T07:40:15.985Z,4.91
2022-12-27T07:42:43.794Z,5.09
2022-12-27T07:45:11.891Z,5.12
2022-12-27T07:47:39.761Z,5.13
2022-12-27T07:50:08.806Z,5.10
2022-12-27T07:52:36.653Z,5.16
2022-12-27T07:55:06.290Z,5.09
2022-12-27T07:57:35.471Z,5.10
2022-12-27T08:00:05.697Z,5.12
2022-12-27T08:02:39.661Z,5.22
2022-12-27T08:05:08.652Z,5.14
2022-12-27T08:07:38.414Z,5.24
2022-12-27T08:10:12.040Z,5.21
2022-12-27T08:12:42.055Z,5.29
2022-12-27T08:15:11.909Z,5.28
2022-12-27T08:17:39.733Z,5.41
2022-12-27T08:20:14.088Z,5.29
2022-12-27T08:22:41.891Z,5.52
2022-12-27T08:25:10.350Z,5.53
2022-12-27T08:27:39.994Z,5.64
2022-12-27T08:30:11.163Z,5.79
2022-12-27T08:32:39.033Z,5.74
2022-12-27T08:35:41.920Z,5.92
2022-12-27T08:37:55.793Z,5.64
2022-12-27T08:40:23.746Z,5.66
2022-12-27T08:42:51.510Z,5.67
2022-12-27T08:45:20.593Z,5.83
2022-12-27T08:47:48.384Z,5.84
2022-12-27T08:50:16.313Z,5.76
2022-12-27T08:52:44.051Z,5.78
2022-12-27T08:55:12.091Z,5.84
2022-12-27T08:57:39.999Z,5.84
2022-12-27T09:00:12.825Z,5.68
2022-12-27T09:02:42.084Z,5.97
2022-12-27T09:05:10.326Z,6.06
2022-12-27T09:07:38.201Z,5.99
2022-12-27T09:10:10.194Z,6.05
2022-12-27T09:12:38.124Z,6.08
2022-12-27T09:15:08.090Z,6.12
2022-12-27T09:17:36.026Z,6.05
2022-12-27T09:20:07.865Z,6.04
2022-12-27T09:22:36.019Z,6.13
2022-12-27T09:25:04.725Z,6.07
2022-12-27T09:27:34.633Z,6.00
2022-12-27T09:30:04.159Z,6.19
2022-12-27T09:32:32.096Z,6.30
2022-12-27T09:35:00.056Z,6.35
2022-12-27T09:37:29.549Z,6.36
2022-12-27T09:39:57.353Z,6.54
2022-12-27T09:42:56.683Z,6.42
2022-12-27T09:45:39.828Z,6.63
2022-12-27T09:48:15.412Z,6.65
2022-12-27T09:50:52.295Z,6.53
2022-12-27T09:53:31.769Z,6.56
2022-12-27T09:56:00.122Z,6.55
2022-12-27T09:58:44.594Z,6.39
2022-12-27T10:01:22.785Z,6.55
2022-12-27T10:03:52.227Z,6.80
2022-12-27T10:06:47.426Z,6.87
2022-12-27T10:09:40.149Z,6.99
2022-12-27T10:12:31.772Z,7.04
2022-12-27T10:15:19.631Z,7.05
2022-12-27T10:18:03.253Z,7.11
2022-12-27T10:20:51.922Z,6.81
2022-12-27T10:23:24.561Z,6.85
2022-12-27T10:25:59.234Z,7.03
2022-12-27T10:28:37.654Z,7.23
2022-12-27T10:31:06.458Z,7.32
2022-12-27T10:33:35.587Z,7.07
2022-12-27T10:36:12.724Z,7.39
2022-12-27T10:38:40.512Z,7.39
2022-12-27T10:41:27.573Z,7.36
2022-12-27T10:43:55.899Z,7.13
2022-12-27T10:46:32.512Z,7.19
2022-12-27T10:49:21.872Z,7.36
2022-12-27T10:51:52.542Z,7.48
2022-12-27T10:54:25.931Z,7.43
2022-12-27T10:56:57.540Z,7.54
2022-12-27T10:59:28.783Z,7.69
2022-12-27T11:02:17.770Z,7.77
2022-12-27T11:05:00.858Z,7.66
2022-12-27T11:07:31.257Z,7.95
2022-12-27T11:10:15.562Z,7.99
2022-12-27T11:12:58.476Z,7.85
2022-12-27T11:15:30.185Z,7.63
2022-12-27T11:18:01.383Z,7.64
2022-12-27T11:20:33.200Z,7.67
2022-12-27T11:23:11.091Z,7.72
2022-12-27T11:25:53.649Z,7.79
2022-12-27T11:28:33.805Z,7.71
2022-12-27T11:31:06.880Z,8.20
2022-12-27T11:33:39.935Z,8.15
2022-12-27T11:36:10.957Z,8.06
2022-12-27T11:38:44.916Z,8.12
2022-12-27T11:41:27.893Z,7.91
2022-12-27T11:44:05.679Z,8.16
2022-12-27T11:46:41.555Z,8.16
2022-12-27T11:49:21.239Z,8.28
2022-12-27T11:52:36.855Z,8.28
2022-12-27T11:55:41.123Z,8.31
2022-12-27T11:58:51.533Z,8.22
2022-12-27T12:02:15.405Z,8.30
2022-12-27T12:05:27.097Z,8.55
2022-12-27T12:08:22.495Z,8.76
2022-12-27T12:11:07.007Z,8.75
2022-12-27T12:14:00.165Z,9.05
2022-12-27T12:17:04.679Z,9.44
2022-12-27T12:19:58.477Z,9.53
2022-12-27T12:22:54.498Z,9.39
2022-12-27T12:25:55.536Z,9.55
2022-12-27T12:29:00.282Z,10.11
2022-12-27T12:32:00.914Z,10.35
2022-12-27T12:35:06.211Z,10.63
2022-12-27T12:38:02.039Z,10.61
2022-12-27T12:41:03.948Z,10.41
2022-12-27T12:44:03.342Z,10.26
2022-12-27T12:46:41.774Z,10.16
2022-12-27T12:49:38.569Z,9.57
2022-12-27T12:52:39.064Z,9.42
2022-12-27T12:55:38.514Z,9.57
2022-12-27T12:58:24.424Z,9.84
2022-12-27T13:01:16.268Z,9.84
2022-12-27T13:04:12.898Z,9.93
2022-12-27T13:07:17.825Z,9.92
2022-12-27T13:10:14.875Z,9.83
2022-12-27T13:12:54.500Z,9.68
2022-12-27T13:15:47.768Z,9.71
2022-12-27T13:18:30.699Z,9.80
2022-12-27T13:21:15.255Z,9.71
2022-12-27T13:23:59.487Z,9.98
2022-12-27T13:26:43.465Z,10.02
2022-12-27T13:29:47.539Z,10.29
2022-12-27T13:32:32.183Z,10.32
2022-12-27T13:35:26.894Z,10.41
2022-12-27T13:38:13.456Z,10.24
2022-12-27T13:41:09.766Z,10.05
2022-12-27T13:44:22.833Z,9.77
2022-12-27T13:47:28.753Z,9.71
2022-12-27T13:50:33.660Z,9.55
2022-12-27T13:53:51.887Z,9.55
2022-12-27T13:59:57.057Z,9.46
2022-12-27T14:03:15.985Z,9.27
2022-12-27T14:06:29.677Z,9.25
2022-12-27T14:09:34.759Z,9.18
2022-12-27T14:12:36.091Z,9.08
2022-12-27T14:15:08.409Z,9.14
2022-12-27T14:17:47.623Z,9.18
2022-12-27T14:20:39.420Z,9.15
2022-12-27T14:23:39.809Z,9.16
2022-12-27T14:26:52.782Z,9.12
2022-12-27T14:29:55.987Z,9.00
2022-12-27T14:33:03.868Z,8.88
2022-12-27T14:36:11.744Z,8.88
2022-12-27T14:39:26.635Z,8.88
2022-12-27T14:42:38.509Z,8.75
2022-12-27T14:45:57.689Z,8.69
2022-12-27T14:49:14.742Z,8.53
2022-12-27T14:52:25.701Z,8.51
2022-12-27T14:55:24.901Z,8.51
2022-12-27T14:58:23.665Z,8.52
2022-12-27T15:01:09.282Z,8.46
2022-12-27T15:04:09.401Z,8.54
2022-12-27T15:07:07.970Z,8.61
2022-12-27T15:09:47.525Z,8.68
2022-12-27T15:12:34.132Z,8.56
2022-12-27T15:15:22.739Z,8.57
2022-12-27T15:18:19.912Z,8.58
2022-12-27T15:21:13.264Z,8.45
2022-12-27T15:23:53.362Z,8.44
2022-12-27T15:26:34.877Z,8.34
2022-12-27T15:29:26.570Z,8.41
2022-12-27T15:32:09.749Z,8.36
2022-12-27T15:35:01.667Z,8.23
2022-12-27T15:38:01.295Z,8.17
2022-12-27T15:41:03.095Z,8.13
2022-12-27T15:44:01.661Z,8.08
2022-12-27T15:47:11.601Z,8.03
2022-12-27T15:50:14.472Z,8.07
2022-12-27T15:53:14.125Z,7.89
2022-12-27T15:56:16.200Z,7.90
2022-12-27T15:58:45.295Z,7.88
2022-12-27T16:01:28.789Z,7.94
2022-12-27T16:03:58.518Z,7.93
2022-12-27T16:06:51.938Z,8.04
2022-12-27T16:09:39.041Z,8.04
2022-12-27T16:12:13.148Z,8.04
2022-12-27T16:14:46.161Z,8.11
2022-12-27T16:17:35.627Z,8.14
2022-12-27T16:20:16.842Z,8.14
2022-12-27T16:22:53.947Z,8.17
2022-12-27T16:25:32.351Z,8.15
2022-12-27T16:28:07.684Z,8.22
2022-12-27T16:30:43.079Z,8.19
2022-12-27T16:33:37.560Z,8.18
2022-12-27T16:36:17.590Z,8.24
2022-12-27T16:39:02.050Z,8.31
2022-12-27T16:41:59.374Z,8.27
2022-12-27T16:44:48.161Z,8.27
2022-12-27T16:48:07.895Z,8.23
2022-12-27T16:51:06.898Z,8.28
2022-12-27T16:54:04.869Z,8.44
2022-12-27T16:56:35.790Z,8.42
2022-12-27T16:59:42.629Z,8.38
2022-12-27T17:02:39.881Z,8.34
2022-12-27T17:05:35.726Z,8.45
2022-12-27T17:08:16.025Z,8.53
2022-12-27T17:11:02.272Z,8.62
2022-12-27T17:13:42.111Z,8.58
2022-12-27T17:16:20.157Z,8.59
2022-12-27T17:18:56.218Z,8.67
2022-12-27T17:21:30.865Z,8.60
2022-12-27T17:24:05.608Z,8.59
2022-12-27T17:27:01.234Z,8.69
2022-12-27T17:30:05.818Z,8.66
2022-12-27T17:32:58.059Z,8.71
2022-12-27T17:35:35.391Z,8.68
2022-12-27T17:38:25.635Z,8.57
2022-12-27T17:41:15.655Z,8.68
2022-12-27T17:44:19.278Z,8.66
2022-12-27T17:46:56.098Z,8.73
2022-12-27T17:49:29.996Z,8.71
2022-12-27T17:52:19.632Z,8.76
2022-12-27T17:55:07.207Z,8.66
2022-12-27T17:57:56.961Z,8.69
2022-12-27T18:00:29.605Z,8.76
2022-12-27T18:03:02.700Z,8.75
2022-12-27T18:05:33.551Z,8.73
2022-12-27T18:08:06.946Z,8.76
2022-12-27T18:10:36.589Z,8.80
2022-12-27T18:13:06.693Z,8.75
2022-12-27T18:15:44.026Z,8.80
2022-12-27T18:18:28.195Z,8.81
2022-12-27T18:20:59.850Z,8.90
2022-12-27T18:23:29.831Z,8.92
2022-12-27T18:26:12.791Z,8.81
2022-12-27T18:28:42.721Z,8.80
2022-12-27T18:31:21.563Z,8.81
2022-12-27T18:33:52.362Z,8.94
2022-12-27T18:36:28.402Z,8.89
2022-12-27T18:39:02.382Z,8.83
2022-12-27T18:41:38.291Z,8.83
2022-12-27T18:44:18.784Z,8.80
2022-12-27T18:46:56.210Z,8.72
2022-12-27T18:49:30.260Z,8.70
2022-12-27T18:51:59.328Z,8.69
2022-12-27T18:54:35.895Z,8.62
2022-12-27T18:57:24.783Z,8.61
2022-12-27T19:00:03.667Z,8.57
2022-12-27T19:02:36.298Z,8.57
2022-12-27T19:05:29.200Z,8.49
2022-12-27T19:08:10.397Z,8.39
2022-12-27T19:10:49.125Z,8.29
2022-12-27T19:13:23.309Z,8.24
2022-12-27T19:15:53.492Z,8.26
2022-12-27T19:18:26.471Z,8.25
2022-12-27T19:20:58.668Z,8.17
2022-12-27T19:23:32.515Z,8.11
2022-12-27T19:26:07.782Z,8.15
2022-12-27T19:28:36.303Z,8.06
2022-12-27T19:31:21.686Z,8.09
2022-12-27T19:33:54.445Z,8.10
2022-12-27T19:36:26.980Z,8.11
2022-12-27T19:38:58.127Z,7.99
2022-12-27T19:41:27.704Z,8.04
2022-12-27T19:43:56.417Z,8.00
2022-12-27T19:46:30.963Z,8.00
2022-12-27T19:51:47.019Z,7.95
2022-12-27T19:54:18.966Z,7.92
2022-12-27T19:56:48.214Z,7.82
2022-12-27T19:59:19.192Z,7.89
2022-12-27T20:01:47.786Z,7.83
2022-12-27T20:04:17.405Z,7.85
2022-12-27T20:06:48.779Z,7.81
2022-12-27T20:09:19.377Z,7.84
2022-12-27T20:11:49.815Z,7.82
2022-12-27T20:14:17.932Z,7.74
2022-12-27T20:16:47.348Z,7.70
2022-12-27T20:19:18.079Z,7.67
2022-12-27T20:21:46.910Z,7.55
2022-12-27T20:24:14.893Z,7.68
2022-12-27T20:26:43.156Z,7.62
2022-12-27T20:29:15.125Z,7.67
2022-12-27T20:31:48.501Z,7.47
2022-12-27T20:34:16.419Z,7.46
2022-12-27T20:36:44.655Z,7.41
2022-12-27T20:39:12.499Z,7.41
2022-12-27T20:41:40.323Z,7.42
2022-12-27T20:44:08.083Z,7.33
2022-12-27T20:46:37.195Z,7.24
2022-12-27T20:49:05.020Z,7.24
2022-12-27T20:51:33.436Z,7.27
2022-12-27T20:54:05.143Z,7.22
2022-12-27T20:56:34.153Z,7.13
2022-12-27T20:59:01.971Z,7.23
2022-12-27T21:01:29.871Z,7.21
2022-12-27T21:03:59.265Z,7.12
2022-12-27T21:06:28.911Z,7.09
2022-12-27T21:08:58.525Z,7.12
2022-12-27T21:11:31.261Z,7.23
2022-12-27T21:14:00.965Z,7.13
2022-12-27T21:16:31.861Z,7.17
2022-12-27T21:19:05.021Z,7.16
2022-12-27T21:21:37.223Z,7.16
2022-12-27T21:24:08.812Z,7.19
2022-12-27T21:26:39.331Z,7.18
2022-12-27T21:29:09.874Z,7.23
2022-12-27T21:31:38.314Z,7.15
2022-12-27T21:34:07.873Z,7.13
2022-12-27T21:36:38.309Z,7.13
2022-12-27T21:39:07.419Z,7.14
2022-12-27T21:41:38.183Z,7.12
2022-12-27T21:44:06.801Z,7.12
2022-12-27T21:46:38.166Z,7.13
2022-12-27T21:49:09.969Z,7.19
2022-12-27T21:51:39.016Z,7.26
2022-12-27T21:54:07.384Z,7.21
2022-12-27T21:56:35.258Z,7.23
2022-12-27T21:59:07.150Z,7.22
2022-12-27T22:01:50.225Z,7.16
2022-12-27T22:04:21.913Z,7.14
2022-12-27T22:06:50.232Z,7.20
2022-12-27T22:09:19.039Z,7.12
2022-12-27T22:11:47.333Z,7.15
2022-12-27T22:14:15.213Z,7.16
2022-12-27T22:16:43.247Z,7.19
2022-12-27T22:19:13.604Z,7.17
2022-12-27T22:21:43.513Z,7.21
2022-12-27T22:24:19.091Z,7.14
2022-12-27T22:26:48.478Z,7.20
2022-12-27T22:29:17.224Z,7.21
2022-12-27T22:31:45.027Z,7.15
2022-12-27T22:34:12.801Z,7.17
2022-12-27T22:36:42.084Z,7.18
2022-12-27T22:39:09.890Z,7.19
2022-12-27T22:41:37.825Z,7.26
2022-12-27T22:44:08.545Z,7.23
2022-12-27T22:49:25.908Z,7.12
2022-12-27T22:51:54.934Z,7.17
2022-12-27T22:55:05.114Z,7.08
2022-12-27T22:57:10.685Z,7.10
2022-12-27T22:59:38.429Z,7.04
2022-12-27T23:02:06.350Z,7.11
2022-12-27T23:04:34.458Z,7.14
2022-12-27T23:07:03.677Z,7.19
2022-12-27T23:09:31.612Z,7.12
2022-12-27T23:11:59.715Z,7.11
2022-12-27T23:14:27.492Z,7.22
2022-12-27T23:16:58.313Z,7.30
2022-12-27T23:19:26.121Z,7.24
2022-12-27T23:21:54.469Z,7.30
2022-12-27T23:24:23.853Z,7.36
2022-12-27T23:26:51.716Z,7.33
2022-12-27T23:29:19.471Z,7.28
2022-12-27T23:31:54.370Z,7.26
2022-12-27T23:34:28.320Z,7.33
2022-12-27T23:36:57.975Z,7.34
2022-12-27T23:39:28.137Z,7.31
2022-12-27T23:41:56.263Z,7.36
2022-12-27T23:44:34.031Z,7.42
2022-12-27T23:47:04.470Z,7.41
2022-12-27T23:49:32.366Z,7.37
2022-12-27T23:52:00.185Z,7.35
2022-12-27T23:54:30.042Z,7.31
2022-12-27T23:56:58.050Z,7.37
2022-12-27T23:59:25.824Z,7.53
